Time;durP1;ratioP1;P1;durP2;ratioP2;P2;SDS_P1;SDS_P2;PMS_P1;PMS_P2;Temp;Humidity;BMP_temperature;BMP_pressure;BME280_temperature;BME280_humidity;BME280_pressure;Samples;Min_cycle;Max_cycle;Signal;HPM_P1;HPM_P2
2024/01/07 00:02:31;;;;;;;;;;;;;;;;;;;;;
2024/01/07 00:05:09;;;;;;;23.73;12.15;;;;;;;1.32;100.00;101538.81;4935288;29;20053;-93
2024/01/07 00:08:50;;;;;;;;;;;;;;;;;;;;;
2024/01/07 00:11:39;;;;;;;15.15;8.07;;;;;;;1.31;100.00;101562.31;4929909;29;20056;-90
2024/01/07 00:14:30;;;;;;;16.50;7.18;;;;;;;1.21;100.00;101560.06;4921076;29;20035;-90
2024/01/07 00:21:35;;;;;;;24.47;9.60;;;;;;;1.22;100.00;101579.16;4936047;29;20459;-90
2024/01/07 00:28:25;;;;;;;22.02;10.85;;;;;;;1.17;100.00;101586.28;5265814;23;20047;-95
2024/01/07 00:30:51;;;;;;;33.40;12.75;;;;;;;1.13;100.00;101574.28;4950541;28;20050;-94
2024/01/07 00:38:57;;;;;;;22.40;10.03;;;;;;;1.13;100.00;101569.94;5723428;23;20055;-93
2024/01/07 00:41:25;;;;;;;22.35;9.77;;;;;;;1.16;100.00;101575.03;4924780;29;20039;-94
2024/01/07 00:43:51;;;;;;;23.23;9.35;;;;;;;1.18;100.00;101580.19;4933253;29;20041;-94
2024/01/07 00:46:17;;;;;;;14.23;7.47;;;;;;;1.12;100.00;101578.63;4914966;29;20073;-94
2024/01/07 01:14:29;;;;;;;15.05;8.20;;;;;;;1.05;100.00;101611.00;5243715;23;20051;-96
2024/01/07 01:17:01;;;;;;;14.30;7.75;;;;;;;1.08;100.00;101606.53;4938211;29;20082;-95
2024/01/07 01:19:39;;;;;;;13.95;7.85;;;;;;;0.95;100.00;101598.31;4941322;23;20075;-96
2024/01/07 01:22:24;;;;;;;17.88;8.57;;;;;;;0.95;100.00;101606.13;4921636;29;20035;-96
2024/01/07 01:25:38;;;;;;;18.70;8.50;;;;;;;0.97;100.00;101606.91;4917218;29;20067;-96
2024/01/07 01:46:10;;;;;;;22.67;8.13;;;;;;;0.70;100.00;101599.13;5073086;23;20071;-94
2024/01/07 01:48:44;;;;;;;20.92;7.32;;;;;;;0.74;100.00;101600.75;4909924;29;20134;-94
2024/01/07 01:51:34;;;;;;;15.02;7.05;;;;;;;0.68;100.00;101602.69;4932426;23;20040;-94
2024/01/07 02:00:06;;;;;;;13.00;7.53;;;;;;;0.58;100.00;101613.41;5210064;23;20079;-96
2024/01/07 02:02:44;;;;;;;18.65;8.50;;;;;;;0.03;100.00;101621.19;4952014;28;20050;-96
2024/01/07 02:05:31;;;;;;;129.25;10.10;;;;;;;-0.30;100.00;101627.31;4952430;28;20030;-95
2024/01/07 02:08:08;;;;;;;38.47;8.27;;;;;;;-0.51;100.00;101619.28;4944399;29;20039;-95
2024/01/07 02:10:44;;;;;;;152.00;10.60;;;;;;;-0.45;100.00;101639.88;4936653;28;20034;-95
2024/01/07 02:13:11;;;;;;;135.00;9.90;;;;;;;-0.51;100.00;101640.06;4927952;29;20050;-95
2024/01/07 02:15:37;;;;;;;112.47;10.55;;;;;;;-0.65;100.00;101646.47;4954691;28;20038;-96
2024/01/07 02:18:03;;;;;;;52.78;10.05;;;;;;;-0.69;100.00;101650.03;4941774;28;20038;-96
2024/01/07 02:20:29;;;;;;;100.32;12.68;;;;;;;-0.75;100.00;101642.41;4936907;28;20053;-95
2024/01/07 02:23:42;;;;;;;116.55;14.20;;;;;;;-0.60;100.00;101645.47;4940275;28;20041;-96
2024/01/07 02:38:33;;;;;;;132.93;13.48;;;;;;;-0.11;100.00;101661.44;5957791;23;20021;-95
2024/01/07 02:41:02;;;;;;;69.63;13.88;;;;;;;-0.23;100.00;101654.84;4938605;28;20047;-96
2024/01/07 02:43:38;;;;;;;39.92;13.23;;;;;;;-0.23;100.00;101662.66;4924088;29;20035;-95
2024/01/07 02:46:14;;;;;;;184.05;16.42;;;;;;;-0.21;100.00;101662.59;5037845;23;20079;-95
2024/01/07 02:48:52;;;;;;;113.43;14.20;;;;;;;-0.23;100.00;101660.06;4922062;28;20040;-95
2024/01/07 02:51:25;;;;;;;438.52;20.55;;;;;;;-0.15;100.00;101665.88;4932083;29;20036;-95
2024/01/07 02:54:02;;;;;;;84.20;14.00;;;;;;;-0.22;100.00;101668.69;4937419;28;20091;-95
2024/01/07 02:56:31;;;;;;;266.23;17.10;;;;;;;-0.44;100.00;101682.28;4941318;29;20047;-94
2024/01/07 02:59:17;;;;;;;325.95;20.52;;;;;;;-0.48;100.00;101685.84;4947294;28;20044;-95
2024/01/07 03:01:53;;;;;;;74.32;14.40;;;;;;;-0.43;100.00;101687.41;4931774;29;20044;-95
2024/01/07 03:04:22;;;;;;;60.97;12.75;;;;;;;-0.39;100.00;101680.41;4947095;23;20052;-92
2024/01/07 03:09:53;;;;;;;67.70;12.07;;;;;;;-0.31;100.00;101688.00;5320819;23;20043;-95
2024/01/07 03:12:19;;;;;;;132.73;13.25;;;;;;;-0.28;100.00;101683.56;4931369;29;20032;-96
2024/01/07 03:14:44;;;;;;;36.17;10.80;;;;;;;-0.19;100.00;101692.84;4937963;28;20031;-95
2024/01/07 03:17:11;;;;;;;84.30;11.70;;;;;;;-0.15;100.00;101693.59;4920921;29;20035;-95
2024/01/07 03:19:39;;;;;;;48.83;10.82;;;;;;;-0.04;100.00;101690.69;4919678;29;20078;-94
2024/01/07 03:22:07;;;;;;;51.97;11.10;;;;;;;-0.06;100.00;101690.75;4928022;29;20039;-96
2024/01/07 03:24:33;;;;;;;33.10;10.45;;;;;;;-0.05;100.00;101695.03;4917310;29;20035;-95
2024/01/07 03:26:58;;;;;;;43.42;11.57;;;;;;;-0.01;100.00;101711.41;4934766;29;20392;-95
2024/01/07 03:29:24;;;;;;;89.72;13.25;;;;;;;0.00;100.00;101700.13;4916681;29;20031;-95
2024/01/07 03:31:50;;;;;;;69.63;12.02;;;;;;;-0.05;100.00;101689.00;4937367;29;20074;-95
2024/01/07 03:34:16;;;;;;;46.45;9.85;;;;;;;-0.07;100.00;101689.06;4930105;29;20035;-95
2024/01/07 03:36:42;;;;;;;21.35;8.98;;;;;;;-0.07;100.00;101690.78;4920190;29;20596;-96
2024/01/07 03:39:08;;;;;;;27.52;8.13;;;;;;;-0.05;100.00;101696.81;4921395;29;20099;-95
2024/01/07 03:41:34;;;;;;;26.00;8.77;;;;;;;-0.05;100.00;101697.63;4937124;29;20086;-95
2024/01/07 03:44:00;;;;;;;56.40;9.30;;;;;;;-0.03;100.00;101695.00;4920091;29;20027;-95
2024/01/07 03:46:25;;;;;;;21.05;9.43;;;;;;;-0.07;100.00;101708.97;4913943;29;20046;-95
2024/01/07 03:48:51;;;;;;;19.15;8.23;;;;;;;-0.14;100.00;101703.97;4933037;28;20042;-95
2024/01/07 03:51:17;;;;;;;21.20;7.38;;;;;;;-0.17;100.00;101701.44;4934353;29;20500;-96
2024/01/07 03:53:43;;;;;;;18.40;7.90;;;;;;;-0.15;100.00;101699.66;4938484;28;21256;-96
2024/01/07 03:56:09;;;;;;;42.50;7.53;;;;;;;-0.17;100.00;101692.78;4921631;29;20044;-96
2024/01/07 03:58:35;;;;;;;21.48;6.30;;;;;;;-0.28;100.00;101693.09;4921480;29;20038;-95
2024/01/07 04:01:01;;;;;;;63.60;7.30;;;;;;;-0.24;100.00;101701.66;4952637;28;20045;-95
2024/01/07 04:03:27;;;;;;;15.50;7.40;;;;;;;-0.27;100.00;101705.22;4932020;29;20071;-95
2024/01/07 04:05:52;;;;;;;24.58;7.28;;;;;;;-0.27;100.00;101720.81;4935401;29;20069;-94
2024/01/07 04:08:18;;;;;;;16.63;7.10;;;;;;;-0.36;100.00;101718.44;4936715;29;20039;-95
2024/01/07 04:10:44;;;;;;;88.75;8.98;;;;;;;-0.49;100.00;101707.53;4937171;29;20039;-95
2024/01/07 04:13:10;;;;;;;15.90;6.40;;;;;;;-0.48;100.00;101719.63;4921839;29;20428;-95
2024/01/07 04:15:36;;;;;;;15.82;7.22;;;;;;;-0.47;100.00;101716.97;4936941;29;20031;-96
2024/01/07 04:18:05;;;;;;;46.88;7.57;;;;;;;-0.43;100.00;101718.59;4917954;29;20044;-95
2024/01/07 04:20:31;;;;;;;74.18;8.30;;;;;;;-0.49;100.00;101717.94;4934403;29;20050;-96
2024/01/07 04:22:57;;;;;;;45.67;7.68;;;;;;;-0.56;100.00;101714.63;4919279;29;20035;-95
2024/01/07 04:25:23;;;;;;;19.35;6.40;;;;;;;-0.63;100.00;101707.00;4920489;29;20039;-95
2024/01/07 04:27:50;;;;;;;33.83;6.28;;;;;;;-0.68;100.00;101714.06;4930570;29;20043;-94
2024/01/07 04:30:16;;;;;;;12.27;5.70;;;;;;;-0.65;100.00;101729.56;4931687;29;20039;-94
2024/01/07 04:32:41;;;;;;;17.13;5.80;;;;;;;-0.61;100.00;101724.28;4917308;29;20039;-95
2024/01/07 04:35:08;;;;;;;35.53;5.22;;;;;;;-0.56;100.00;101733.69;4935871;29;20040;-95
2024/01/07 04:37:35;;;;;;;9.43;5.43;;;;;;;-0.44;100.00;101729.88;4937835;29;20067;-95
2024/01/07 04:40:02;;;;;;;59.38;5.80;;;;;;;-0.39;100.00;101735.81;4935586;28;20043;-95
2024/01/07 04:42:27;;;;;;;7.70;4.90;;;;;;;-0.33;100.00;101734.78;4911543;29;20067;-95
2024/01/07 04:44:53;;;;;;;11.77;4.60;;;;;;;-0.29;100.00;101748.56;4915696;29;20067;-95
2024/01/07 04:47:37;;;;;;;16.33;5.80;;;;;;;-0.40;100.00;101752.28;4915710;29;20069;-95
2024/01/07 04:50:04;;;;;;;7.30;5.20;;;;;;;-0.59;100.00;101749.31;4950931;29;20036;-95
2024/01/07 04:52:30;;;;;;;19.17;6.05;;;;;;;-0.65;100.00;101752.94;4938028;29;20028;-95
2024/01/07 04:54:56;;;;;;;29.38;5.82;;;;;;;-0.71;100.00;101740.09;4932048;29;20047;-95
2024/01/07 04:57:22;;;;;;;12.10;6.57;;;;;;;-0.67;100.00;101733.09;4925179;29;20122;-95
2024/01/07 04:59:50;;;;;;;12.50;5.80;;;;;;;-0.64;100.00;101743.41;4929030;29;20044;-95
2024/01/07 05:02:15;;;;;;;23.30;6.95;;;;;;;-0.67;100.00;101741.72;4938917;29;20396;-95
2024/01/07 05:04:42;;;;;;;13.23;6.45;;;;;;;-0.71;100.00;101745.28;4924208;29;20090;-94
2024/01/07 05:07:07;;;;;;;13.45;6.65;;;;;;;-0.76;100.00;101749.75;4943216;29;20043;-95
2024/01/07 05:09:33;;;;;;;31.45;6.70;;;;;;;-0.71;100.00;101749.63;4935610;29;20567;-95
2024/01/07 05:12:00;;;;;;;73.30;8.48;;;;;;;-0.68;100.00;101742.63;4930312;29;20028;-96
2024/01/07 05:14:27;;;;;;;41.95;8.02;;;;;;;-0.66;100.00;101739.97;4940277;29;20040;-95
2024/01/07 05:16:55;;;;;;;66.95;7.40;;;;;;;-0.57;100.00;101759.66;4937466;29;20496;-95
2024/01/07 05:19:21;;;;;;;46.65;7.18;;;;;;;-0.63;100.00;101747.69;4915076;29;20040;-96
2024/01/07 05:21:47;;;;;;;62.28;8.05;;;;;;;-0.57;100.00;101757.06;4919326;29;20500;-95
2024/01/07 05:24:13;;;;;;;67.13;6.57;;;;;;;-0.51;100.00;101754.34;4921259;29;20063;-95
2024/01/07 05:26:40;;;;;;;39.15;7.32;;;;;;;-0.42;100.00;101750.63;4917686;29;20063;-95
2024/01/07 05:29:06;;;;;;;97.38;7.55;;;;;;;-0.40;100.00;101747.09;4939496;29;20043;-95
2024/01/07 05:31:32;;;;;;;46.08;7.50;;;;;;;-0.35;100.00;101753.94;4936891;29;20119;-96
2024/01/07 05:33:58;;;;;;;94.60;8.43;;;;;;;-0.33;100.00;101765.97;4929779;29;20098;-95
2024/01/07 05:36:24;;;;;;;101.30;7.32;;;;;;;-0.36;100.00;101765.19;4955977;28;20085;-95
2024/01/07 05:38:50;;;;;;;72.15;8.05;;;;;;;-0.36;100.00;101765.19;4920319;29;20503;-95
2024/01/07 05:41:15;;;;;;;130.68;8.60;;;;;;;-0.33;100.00;101763.38;4919138;29;20035;-95
2024/01/07 05:43:41;;;;;;;40.80;7.82;;;;;;;-0.27;100.00;101767.56;4936712;29;20039;-96
2024/01/07 05:46:07;;;;;;;40.28;6.35;;;;;;;-0.29;100.00;101782.34;4927852;29;20042;-96
2024/01/07 05:48:44;;;;;;;83.30;7.03;;;;;;;-0.21;100.00;101779.53;4957755;28;20031;-94
2024/01/07 05:51:10;;;;;;;75.22;7.03;;;;;;;-0.35;100.00;101785.09;4935226;29;20035;-95
2024/01/07 05:53:35;;;;;;;153.80;8.18;;;;;;;-0.44;100.00;101778.38;4957946;28;20054;-95
2024/01/07 05:56:02;;;;;;;85.45;6.50;;;;;;;-0.44;100.00;101775.78;4935804;29;20042;-96
2024/01/07 05:58:29;;;;;;;50.13;6.60;;;;;;;-0.38;100.00;101779.09;4938881;29;20044;-96
2024/01/07 06:00:55;;;;;;;56.38;5.97;;;;;;;-0.39;100.00;101780.00;4937158;29;20039;-96
2024/01/07 06:03:20;;;;;;;18.83;5.28;;;;;;;-0.46;100.00;101781.03;4919069;29;20503;-95
2024/01/07 06:05:46;;;;;;;361.55;11.70;;;;;;;-0.52;100.00;101769.06;4939684;29;20098;-95
2024/01/07 06:08:12;;;;;;;96.18;6.65;;;;;;;-0.50;100.00;101782.00;4953537;29;20035;-95
2024/01/07 06:10:39;;;;;;;201.25;7.63;;;;;;;-0.48;100.00;101777.63;4939192;29;20484;-95
2024/01/07 06:13:05;;;;;;;42.72;5.05;;;;;;;-0.48;100.00;101772.44;4935379;29;20035;-96
2024/01/07 06:15:30;;;;;;;63.47;6.05;;;;;;;-0.44;100.00;101778.38;4933253;29;20146;-95
2024/01/07 06:17:56;;;;;;;140.95;6.88;;;;;;;-0.47;100.00;101774.13;4918295;29;20156;-95
2024/01/07 06:20:23;;;;;;;57.05;5.55;;;;;;;-0.47;100.00;101768.94;4931804;29;20042;-96
2024/01/07 06:22:49;;;;;;;25.92;4.60;;;;;;;-0.55;100.00;101770.88;4937491;29;20042;-95
2024/01/07 06:25:14;;;;;;;25.35;4.97;;;;;;;-0.50;100.00;101771.63;4935876;29;20176;-96
2024/01/07 06:27:41;;;;;;;64.30;5.30;;;;;;;-0.48;100.00;101782.84;4938733;29;20064;-96
2024/01/07 06:30:07;;;;;;;9.50;5.18;;;;;;;-0.47;100.00;101786.25;4922403;29;20042;-96
2024/01/07 06:32:34;;;;;;;28.15;4.63;;;;;;;-0.70;100.00;101791.13;4936700;29;20039;-95
2024/01/07 06:35:00;;;;;;;36.63;5.45;;;;;;;-0.88;100.00;101790.69;4939353;28;20045;-95
2024/01/07 06:37:28;;;;;;;48.08;5.63;;;;;;;-0.91;100.00;101789.94;4921354;28;20521;-96
2024/01/07 06:39:55;;;;;;;76.32;6.82;;;;;;;-0.86;100.00;101789.81;4922945;29;20488;-95
2024/01/07 06:42:21;;;;;;;28.77;5.70;;;;;;;-0.82;100.00;101794.91;4927563;29;20519;-96
2024/01/07 06:44:46;;;;;;;114.85;6.82;;;;;;;-0.81;100.00;101800.94;4913882;29;20156;-96
2024/01/07 06:47:12;;;;;;;52.25;6.53;;;;;;;-0.83;100.00;101800.13;4922568;29;20036;-96
2024/01/07 06:49:38;;;;;;;85.32;6.32;;;;;;;-0.75;100.00;101803.41;4951375;28;20040;-95
2024/01/07 06:52:05;;;;;;;123.00;7.55;;;;;;;-0.70;100.00;101805.88;4932786;29;20081;-96
2024/01/07 06:54:31;;;;;;;83.00;6.03;;;;;;;-0.70;100.00;101804.13;4916893;29;20412;-95
2024/01/07 06:56:56;;;;;;;54.75;5.70;;;;;;;-0.69;100.00;101805.84;4932989;29;20053;-96
2024/01/07 06:59:22;;;;;;;70.63;5.97;;;;;;;-0.67;100.00;101823.97;4923771;28;20050;-96
2024/01/07 07:01:48;;;;;;;130.38;6.78;;;;;;;-1.00;100.00;101819.53;4936940;29;20540;-96
2024/01/07 07:04:14;;;;;;;57.60;5.85;;;;;;;-1.04;100.00;101830.88;4919896;29;20480;-95
2024/01/07 07:06:40;;;;;;;20.88;5.65;;;;;;;-1.19;100.00;101832.06;4938162;29;20035;-96
2024/01/07 07:09:05;;;;;;;22.27;4.90;;;;;;;-1.19;100.00;101832.91;4932197;29;20051;-96
2024/01/07 07:11:32;;;;;;;85.93;6.60;;;;;;;-1.13;100.00;101829.31;4937268;29;20121;-96
2024/01/07 07:13:58;;;;;;;16.80;5.10;;;;;;;-1.09;100.00;101837.91;4905637;28;20551;-96
2024/01/07 07:16:23;;;;;;;45.47;13.05;;;;;;;-1.09;100.00;101830.13;4940987;28;20038;-95
2024/01/07 07:18:49;;;;;;;57.58;6.20;;;;;;;-1.11;100.00;101834.50;4917937;29;20171;-95
2024/01/07 07:21:15;;;;;;;45.05;5.70;;;;;;;-1.10;100.00;101831.00;4929749;29;20035;-95
2024/01/07 07:23:40;;;;;;;28.52;5.22;;;;;;;-1.09;100.00;101838.75;4922082;29;20035;-96
2024/01/07 07:26:08;;;;;;;9.77;5.75;;;;;;;-1.09;100.00;101836.16;4936074;29;20042;-96
2024/01/07 07:28:34;;;;;;;45.40;5.53;;;;;;;-1.09;100.00;101835.31;4922565;29;20484;-96
2024/01/07 07:31:00;;;;;;;24.13;5.43;;;;;;;-1.06;100.00;101843.03;4933404;29;20051;-94
2024/01/07 07:33:25;;;;;;;111.63;6.63;;;;;;;-1.05;100.00;101845.59;4938397;29;20459;-95
2024/01/07 07:35:51;;;;;;;26.20;5.38;;;;;;;-1.07;100.00;101849.97;4930296;29;20028;-95
2024/01/07 07:38:17;;;;;;;83.82;6.03;;;;;;;-1.00;100.00;101848.06;4933252;29;20043;-95
2024/01/07 07:40:44;;;;;;;25.35;5.72;;;;;;;-0.99;100.00;101852.41;4932861;29;20086;-95
2024/01/07 07:43:10;;;;;;;17.63;5.32;;;;;;;-1.03;100.00;101862.00;4951484;28;20059;-95
2024/01/07 07:45:36;;;;;;;31.95;5.25;;;;;;;-1.02;100.00;101862.84;4935332;28;20032;-95
2024/01/07 07:48:02;;;;;;;32.53;5.20;;;;;;;-1.24;100.00;101876.25;4909606;28;20031;-95
2024/01/07 07:50:27;;;;;;;24.42;5.05;;;;;;;-1.31;100.00;101872.97;4921108;29;20058;-95
2024/01/07 07:52:53;;;;;;;45.70;5.68;;;;;;;-1.32;100.00;101866.03;4938241;29;20043;-95
2024/01/07 07:55:19;;;;;;;51.17;5.65;;;;;;;-1.29;100.00;101863.38;4927483;29;20042;-96
2024/01/07 07:57:46;;;;;;;58.67;5.90;;;;;;;-1.27;100.00;101872.00;4937980;28;20046;-95
2024/01/07 08:00:12;;;;;;;25.63;5.35;;;;;;;-1.26;100.00;101873.69;4934152;28;20284;-96
2024/01/07 08:02:39;;;;;;;20.00;4.95;;;;;;;-1.26;100.00;101881.47;4920667;29;20162;-96
2024/01/07 08:05:07;;;;;;;53.08;4.85;;;;;;;-1.25;100.00;101875.44;4935664;29;20452;-95
2024/01/07 08:07:32;;;;;;;23.17;5.10;;;;;;;-1.26;100.00;101883.25;4929590;29;20039;-95
2024/01/07 08:09:58;;;;;;;10.60;5.80;;;;;;;-1.26;100.00;101891.84;4919696;29;20062;-95
2024/01/07 08:12:24;;;;;;;7.63;5.20;;;;;;;-1.33;100.00;101892.00;4931020;29;20056;-95
2024/01/07 08:14:49;;;;;;;54.10;5.68;;;;;;;-1.34;100.00;101891.19;4936666;29;20035;-95
2024/01/07 08:17:16;;;;;;;21.60;6.80;;;;;;;-1.32;100.00;101894.59;4918083;29;20142;-95
2024/01/07 08:19:42;;;;;;;49.78;5.65;;;;;;;-1.31;100.00;101900.63;4948997;28;20035;-95
2024/01/07 08:22:09;;;;;;;58.67;5.22;;;;;;;-1.33;100.00;101892.00;4931486;29;20123;-94
2024/01/07 08:24:34;;;;;;;188.98;6.97;;;;;;;-1.33;100.00;101892.88;4930850;29;20027;-94
2024/01/07 08:27:02;;;;;;;65.28;5.43;;;;;;;-1.31;100.00;101893.72;4947818;28;20036;-94
2024/01/07 08:29:29;;;;;;;72.22;5.07;;;;;;;-1.29;100.00;101896.28;4926629;29;20043;-94
2024/01/07 08:31:55;;;;;;;56.42;5.10;;;;;;;-1.34;100.00;101890.31;4933704;29;20139;-94
2024/01/07 08:34:20;;;;;;;49.00;5.25;;;;;;;-1.34;100.00;101898.09;4941456;28;20189;-94
2024/01/07 08:36:46;;;;;;;31.02;5.00;;;;;;;-1.37;100.00;101906.81;4928752;29;20142;-94
2024/01/07 08:39:14;;;;;;;33.53;3.92;;;;;;;-1.43;100.00;101910.34;4921796;29;20047;-93
2024/01/07 08:41:40;;;;;;;29.77;5.95;;;;;;;-1.54;100.00;101913.16;4923299;29;20043;-94
2024/01/07 08:44:08;;;;;;;16.45;4.57;;;;;;;-1.64;100.00;101919.41;4922420;29;20490;-94
2024/01/07 08:46:34;;;;;;;10.32;4.60;;;;;;;-1.62;100.00;101915.03;4934955;29;20050;-94
2024/01/07 08:49:02;;;;;;;38.72;5.63;;;;;;;-1.59;100.00;101909.78;4922802;28;20058;-94
2024/01/07 08:51:29;;;;;;;49.33;5.95;;;;;;;-1.54;100.00;101920.09;4949669;28;20071;-94
2024/01/07 08:53:57;;;;;;;43.05;5.57;;;;;;;-1.54;100.00;101920.94;4923643;29;20036;-94
2024/01/07 08:56:23;;;;;;;58.97;5.75;;;;;;;-1.56;100.00;101920.09;4935372;29;20040;-95
2024/01/07 08:58:48;;;;;;;33.97;6.43;;;;;;;-1.59;100.00;101920.16;4924158;29;20061;-95
2024/01/07 09:01:14;;;;;;;57.17;6.63;;;;;;;-1.61;100.00;101916.78;4936763;29;20420;-93
2024/01/07 09:03:41;;;;;;;20.75;5.57;;;;;;;-1.59;100.00;101922.75;4939771;29;20383;-95
2024/01/07 09:06:07;;;;;;;23.25;5.15;;;;;;;-1.60;100.00;101917.59;4925715;29;20489;-95
2024/01/07 09:08:34;;;;;;;22.05;5.57;;;;;;;-1.56;100.00;101924.47;4920023;29;20078;-96
2024/01/07 09:11:01;;;;;;;14.45;5.53;;;;;;;-1.56;100.00;101925.28;4938306;29;20031;-95
2024/01/07 09:13:27;;;;;;;30.25;5.20;;;;;;;-1.51;100.00;101931.25;4940110;29;20055;-95
2024/01/07 09:15:53;;;;;;;20.35;5.10;;;;;;;-1.53;100.00;101927.81;4937745;29;20054;-95
2024/01/07 09:18:18;;;;;;;42.83;6.35;;;;;;;-1.59;100.00;101942.66;4911799;28;20048;-95
2024/01/07 09:20:44;;;;;;;20.90;7.88;;;;;;;-1.67;100.00;101938.47;4955597;28;20396;-96
2024/01/07 09:23:10;;;;;;;38.70;10.52;;;;;;;-1.69;100.00;101937.63;4936112;29;20032;-96
2024/01/07 09:25:36;;;;;;;47.30;7.88;;;;;;;-1.69;100.00;101941.97;4928287;28;20634;-96
2024/01/07 09:28:02;;;;;;;55.13;7.95;;;;;;;-1.68;100.00;101938.50;4939636;28;20386;-95
2024/01/07 09:30:28;;;;;;;36.88;10.60;;;;;;;-1.64;100.00;101934.97;4932243;29;20035;-95
2024/01/07 09:32:54;;;;;;;34.05;11.20;;;;;;;-1.62;100.00;101936.66;4933195;29;20044;-95
2024/01/07 09:35:20;;;;;;;28.38;10.88;;;;;;;-1.57;100.00;101938.28;4935878;29;20087;-95
2024/01/07 09:37:45;;;;;;;19.30;9.32;;;;;;;-1.53;100.00;101932.19;4922896;29;20035;-95
2024/01/07 09:40:12;;;;;;;15.10;7.82;;;;;;;-1.50;100.00;101942.50;4909162;29;20091;-94
2024/01/07 09:42:38;;;;;;;13.05;6.75;;;;;;;-1.59;100.00;101927.94;4918893;29;20044;-95
2024/01/07 09:45:07;;;;;;;8.38;5.40;;;;;;;-1.56;100.00;101927.06;4940917;29;20036;-95
2024/01/07 09:47:33;;;;;;;8.77;6.40;;;;;;;-1.65;100.00;101931.53;4931788;29;20544;-95
2024/01/07 09:49:59;;;;;;;9.93;5.22;;;;;;;-1.71;100.00;101941.13;4919240;29;20504;-94
2024/01/07 09:52:25;;;;;;;8.18;5.07;;;;;;;-1.71;100.00;101946.31;4917687;29;20036;-94
2024/01/07 09:54:59;;;;;;;6.25;4.78;;;;;;;-1.60;100.00;101951.31;4899801;29;20049;-95
2024/01/07 09:57:25;;;;;;;6.72;5.38;;;;;;;-1.54;100.00;101952.06;4918332;29;20039;-95
2024/01/07 09:59:51;;;;;;;11.25;7.35;;;;;;;-1.49;100.00;101944.19;4927435;29;20046;-96
2024/01/07 10:02:16;;;;;;;12.50;7.68;;;;;;;-1.36;100.00;101942.22;4923577;29;20044;-94
2024/01/07 10:04:43;;;;;;;11.30;8.00;;;;;;;-1.27;100.00;101946.38;4919988;29;20120;-94
2024/01/07 10:07:09;;;;;;;13.05;8.38;;;;;;;-1.18;100.00;101953.97;4917491;29;20036;-94
2024/01/07 10:09:35;;;;;;;12.95;8.63;;;;;;;-1.06;100.00;101946.84;4918553;29;20047;-94
2024/01/07 10:12:00;;;;;;;10.65;7.72;;;;;;;-0.98;100.00;101951.88;4918070;29;20028;-94
2024/01/07 10:14:26;;;;;;;11.23;8.02;;;;;;;-0.87;100.00;101952.50;4904133;29;20031;-94
2024/01/07 10:16:52;;;;;;;14.75;9.98;;;;;;;-0.81;100.00;101948.94;4920112;29;20059;-94
2024/01/07 10:19:23;;;;;;;14.40;8.40;;;;;;;-0.72;100.00;101950.47;4919697;29;20032;-95
2024/01/07 10:22:09;;;;;;;12.98;8.07;;;;;;;-0.69;100.00;101943.47;4928469;29;20028;-94
2024/01/07 10:24:39;;;;;;;9.10;7.15;;;;;;;-0.63;100.00;101955.47;4918244;29;20047;-95
2024/01/07 10:27:06;;;;;;;9.63;6.95;;;;;;;-0.58;100.00;101961.41;4919411;29;20507;-94
2024/01/07 10:29:32;;;;;;;12.65;8.68;;;;;;;-0.44;100.00;101968.03;4919192;29;20039;-94
2024/01/07 10:32:02;;;;;;;10.07;7.03;;;;;;;-0.31;100.00;101959.06;4931351;28;20038;-95
2024/01/07 10:34:31;;;;;;;10.40;7.40;;;;;;;-0.21;100.00;101961.47;4935951;29;20036;-94
2024/01/07 10:36:59;;;;;;;14.25;10.77;;;;;;;-0.11;100.00;101956.91;4901778;29;20104;-96
2024/01/07 10:39:25;;;;;;;8.25;6.18;;;;;;;-0.05;100.00;101959.34;4935123;29;20040;-95
2024/01/07 10:41:57;;;;;;;10.52;6.25;;;;;;;0.02;100.00;101960.88;4919772;29;20130;-95
2024/01/07 10:44:30;;;;;;;7.97;5.63;;;;;;;0.12;100.00;101964.13;4918570;29;20552;-95
2024/01/07 10:46:56;;;;;;;7.93;5.93;;;;;;;0.13;100.00;101967.59;4905068;29;20031;-95
2024/01/07 10:49:27;;;;;;;8.45;6.45;;;;;;;0.19;100.00;101965.66;4904565;29;20127;-96
2024/01/07 10:52:07;;;;;;;11.73;6.20;;;;;;;0.26;100.00;101966.38;4949844;29;20107;-94
2024/01/07 10:54:36;;;;;;;8.23;6.80;;;;;;;0.31;100.00;101964.50;4950800;29;20047;-95
2024/01/07 10:57:26;;;;;;;7.45;5.88;;;;;;;0.41;100.00;101972.06;4930680;29;20123;-95
2024/01/07 10:59:54;;;;;;;8.57;5.93;;;;;;;0.39;100.00;101976.44;4929428;29;20051;-95
2024/01/07 11:02:22;;;;;;;12.27;6.40;;;;;;;0.43;100.00;101976.31;4914119;29;20036;-96
2024/01/07 11:04:58;;;;;;;7.22;5.68;;;;;;;0.51;100.00;101970.91;4916959;29;20043;-96
2024/01/07 11:07:37;;;;;;;;;;;;;;;0.47;100.00;101979.72;4928485;29;20044;-94
2024/01/07 11:10:13;;;;;;;13.30;9.38;;;;;;;0.52;100.00;101984.78;4932731;28;19919;-95
2024/01/07 11:12:39;;;;;;;9.45;5.72;;;;;;;0.56;100.00;101992.47;4932617;29;20046;-95
2024/01/07 11:15:05;;;;;;;11.25;8.25;;;;;;;0.65;100.00;101982.72;4916970;29;20393;-95
2024/01/07 11:17:37;;;;;;;8.57;5.50;;;;;;;0.79;100.00;101987.56;4900804;29;20034;-95
2024/01/07 11:20:18;;;;;;;10.50;5.63;;;;;;;0.88;100.00;101978.66;4935233;29;20508;-95
2024/01/07 11:22:44;;;;;;;7.90;5.72;;;;;;;0.93;100.00;101979.34;4916534;29;20047;-96
2024/01/07 11:25:31;;;;;;;6.88;5.45;;;;;;;1.11;100.00;101973.59;4898941;29;20036;-95
2024/01/07 11:27:57;;;;;;;9.65;7.22;;;;;;;1.15;100.00;101981.38;4911791;29;20126;-95
2024/01/07 11:30:23;;;;;;;7.20;5.40;;;;;;;1.15;100.00;101982.19;4903027;29;20178;-94
2024/01/07 11:32:59;;;;;;;8.68;5.75;;;;;;;1.20;100.00;101975.09;4918584;29;20040;-96
2024/01/07 11:35:54;;;;;;;11.55;5.90;;;;;;;1.19;100.00;101965.59;4930916;29;20047;-95
2024/01/07 11:38:19;;;;;;;8.85;6.25;;;;;;;1.15;100.00;101976.97;4918729;29;20050;-96
2024/01/07 11:40:48;;;;;;;9.95;6.60;;;;;;;1.17;100.00;101980.41;4919257;29;20036;-96
2024/01/07 11:43:14;;;;;;;12.50;7.15;;;;;;;1.09;100.00;101977.16;4892732;29;20050;-96
2024/01/07 11:45:40;;;;;;;10.98;7.28;;;;;;;1.10;100.00;101982.34;4914849;29;20027;-94
2024/01/07 11:48:06;;;;;;;13.68;7.55;;;;;;;1.26;100.00;101975.84;4902830;29;20043;-95
2024/01/07 11:50:32;;;;;;;10.45;6.22;;;;;;;1.31;100.00;101981.75;4889545;29;20038;-95
2024/01/07 11:52:58;;;;;;;11.45;7.47;;;;;;;1.36;100.00;101985.94;4915918;29;20130;-95
2024/01/07 11:55:24;;;;;;;10.90;7.28;;;;;;;1.52;100.00;101989.81;4893717;29;20071;-96
2024/01/07 11:57:51;;;;;;;10.85;7.70;;;;;;;1.61;100.00;102002.56;4917545;29;20071;-96
2024/01/07 12:00:18;;;;;;;13.00;7.97;;;;;;;1.66;100.00;101984.16;4902180;29;20031;-95
2024/01/07 12:02:46;;;;;;;11.15;7.55;;;;;;;1.73;100.00;101977.88;4902486;29;20042;-96
2024/01/07 12:05:12;;;;;;;13.70;8.60;;;;;;;1.83;100.00;101986.28;4915711;29;20039;-96
2024/01/07 12:07:38;;;;;;;13.55;8.25;;;;;;;1.90;100.00;101982.53;4914357;29;20097;-94
2024/01/07 12:10:11;;;;;;;13.57;8.05;;;;;;;2.04;100.00;101981.25;4911598;29;20480;-94
2024/01/07 12:12:40;;;;;;;18.27;7.78;;;;;;;2.12;100.00;101968.78;4927693;29;20091;-94
2024/01/07 12:15:07;;;;;;;11.13;7.03;;;;;;;2.21;100.00;101978.09;4918046;29;20532;-95
2024/01/07 12:17:33;;;;;;;15.75;8.48;;;;;;;2.28;100.00;101976.97;4928353;29;20036;-95
2024/01/07 12:20:00;;;;;;;15.00;10.52;;;;;;;2.36;100.00;101981.91;4899528;29;20499;-94
2024/01/07 12:22:29;;;;;;;11.55;7.57;;;;;;;2.52;100.00;101977.03;4892600;29;20039;-94
2024/01/07 12:25:08;;;;;;;15.73;8.30;;;;;;;2.71;100.00;101972.00;4928463;29;20055;-93
2024/01/07 12:27:35;;;;;;;15.23;7.40;;;;;;;2.83;100.00;101981.19;4912452;29;20035;-93
2024/01/07 12:30:02;;;;;;;12.15;8.10;;;;;;;2.98;100.00;101981.50;4931831;29;20031;-93
2024/01/07 12:32:32;;;;;;;10.85;7.28;;;;;;;3.18;100.00;101990.38;4928917;29;20058;-94
2024/01/07 12:35:01;;;;;;;10.90;7.05;;;;;;;3.24;100.00;101979.69;4902562;29;20126;-93
2024/01/07 12:37:27;;;;;;;12.13;6.30;;;;;;;3.33;100.00;101981.09;4927321;29;20354;-93
2024/01/07 12:39:54;;;;;;;11.00;6.22;;;;;;;3.44;100.00;101971.06;4914643;29;20038;-93
2024/01/07 12:42:21;;;;;;;9.90;5.50;;;;;;;3.51;100.00;101976.91;4931940;29;20484;-93